PWSweather.com
Personal Weather Stations
Station Observations
MAKAWAOWX1
Up Country Maui, Makawao, HI 96768

Up Country MauiMakawao, HI 96768

Lat: 20.856944, Lon: -156.3149667

Elevation: 1500

Station Type: Davis Vantage Pro

www.dwayneyamato@hawaiiantel.net

High Low Average
Temperature 83.6°F28.7°F 66.8°F19.3°F 74.2°F23.4°F
Dew Point 70.6°F21.4°F 59.5°F15.3°F 65.2°F18.4°F
Winds 13.0 mph E20.9 mph E Calm Calm 4.7 mph 7.6 mph
Wind Gusts 17.0 mph27.4 mph -- 7.7 mph12.4 mph
Humidity 89% 60% 74%
Pressure 29.95 in1014.20 in 29.85 in1010.80 in -
Precipitation 0.00 in0.00 in - -
Hour Temp Dew Point Humidity Winds Wind Gusts Pressure Precip Precip Rate Daily Precip Total
12:00 AM 71.3°F21.8°C 63.4°F17.4°C 76% 6.4 mph E10.3 kmh E 9.0 mph14.5 kmh 29.93 in1013.5 mb 0.00 in0.0 mm 0.00 in/hr0.0 mm/hr 0.00 in0.0 mm
12:10 AM 71.3°F21.8°C 63.0°F17.2°C 75% 6.9 mph ENE11.1 kmh ENE 11.0 mph17.7 kmh 29.92 in1013.2 mb 0.00 in0.0 mm 0.00 in/hr0.0 mm/hr 0.00 in0.0 mm
12:20 AM 71.4°F21.9°C 62.7°F17.1°C 74% 8.3 mph ENE13.4 kmh ENE 16.0 mph25.7 kmh 29.91 in1012.9 mb 0.00 in0.0 mm 0.00 in/hr0.0 mm/hr 0.00 in0.0 mm
12:30 AM 71.5°F21.9°C 62.8°F17.1°C 74% 7.3 mph ENE11.7 kmh ENE 12.0 mph19.3 kmh 29.91 in1012.9 mb 0.00 in0.0 mm 0.00 in/hr0.0 mm/hr 0.00 in0.0 mm
12:40 AM 71.5°F21.9°C 63.2°F17.3°C 75% 7.5 mph NE12.1 kmh NE 10.0 mph16.1 kmh 29.91 in1012.9 mb 0.00 in0.0 mm 0.00 in/hr0.0 mm/hr 0.00 in0.0 mm
12:50 AM 71.4°F21.9°C 63.1°F17.3°C 75% 6.5 mph ENE10.5 kmh ENE 10.0 mph16.1 kmh 29.90 in1012.5 mb 0.00 in0.0 mm 0.00 in/hr0.0 mm/hr 0.00 in0.0 mm
01:00 AM 71.5°F21.9°C 63.2°F17.3°C 75% 7.1 mph E11.4 kmh E 8.0 mph12.9 kmh 29.90 in1012.5 mb 0.00 in0.0 mm 0.00 in/hr0.0 mm/hr 0.00 in0.0 mm
01:10 AM 71.7°F22.1°C 63.0°F17.2°C 74% 5.9 mph E9.5 kmh E 10.0 mph16.1 kmh 29.90 in1012.5 mb 0.00 in0.0 mm 0.00 in/hr0.0 mm/hr 0.00 in0.0 mm
01:20 AM 71.8°F22.1°C 62.7°F17.1°C 73% 6.9 mph ENE11.1 kmh ENE 8.0 mph12.9 kmh 29.89 in1012.2 mb 0.00 in0.0 mm 0.00 in/hr0.0 mm/hr 0.00 in0.0 mm
01:30 AM 71.8°F22.1°C 62.6°F17.0°C 73% 5.4 mph ENE8.7 kmh ENE 10.0 mph16.1 kmh 29.89 in1012.2 mb 0.00 in0.0 mm 0.00 in/hr0.0 mm/hr 0.00 in0.0 mm
01:40 AM 71.7°F22.1°C 62.2°F16.8°C 72% 5.9 mph E9.5 kmh E 11.0 mph17.7 kmh 29.88 in1011.9 mb 0.00 in0.0 mm 0.00 in/hr0.0 mm/hr 0.00 in0.0 mm
01:50 AM 71.7°F22.1°C 62.6°F17.0°C 73% 3.8 mph E6.1 kmh E 6.0 mph9.7 kmh 29.89 in1012.2 mb 0.00 in0.0 mm 0.00 in/hr0.0 mm/hr 0.00 in0.0 mm
02:00 AM 71.5°F21.9°C 62.0°F16.7°C 72% 3.1 mph ESE5.0 kmh ESE 3.0 mph4.8 kmh 29.89 in1012.2 mb 0.00 in0.0 mm 0.00 in/hr0.0 mm/hr 0.00 in0.0 mm
02:10 AM 71.2°F21.8°C 61.7°F16.5°C 72% 4.8 mph NE7.7 kmh NE 9.0 mph14.5 kmh 29.88 in1011.9 mb 0.00 in0.0 mm 0.00 in/hr0.0 mm/hr 0.00 in0.0 mm
02:20 AM 71.4°F21.9°C 62.3°F16.8°C 73% 7.7 mph E12.4 kmh E 12.0 mph19.3 kmh 29.88 in1011.9 mb 0.00 in0.0 mm 0.00 in/hr0.0 mm/hr 0.00 in0.0 mm
02:30 AM 71.4°F21.9°C 63.1°F17.3°C 75% 7.9 mph E12.7 kmh E 12.0 mph19.3 kmh 29.87 in1011.5 mb 0.00 in0.0 mm 0.00 in/hr0.0 mm/hr 0.00 in0.0 mm
02:40 AM 71.2°F21.8°C 63.3°F17.4°C 76% 9.2 mph E14.8 kmh E 15.0 mph24.1 kmh 29.87 in1011.5 mb 0.00 in0.0 mm 0.00 in/hr0.0 mm/hr 0.00 in0.0 mm
02:50 AM 71.1°F21.7°C 62.8°F17.1°C 75% 4.7 mph E7.6 kmh E 9.0 mph14.5 kmh 29.87 in1011.5 mb 0.00 in0.0 mm 0.00 in/hr0.0 mm/hr 0.00 in0.0 mm
03:00 AM 71.0°F21.7°C 61.9°F16.6°C 73% 6.0 mph SE9.7 kmh SE 7.0 mph11.3 kmh 29.87 in1011.5 mb 0.00 in0.0 mm 0.00 in/hr0.0 mm/hr 0.00 in0.0 mm
03:10 AM 71.3°F21.8°C 63.0°F17.2°C 75% 8.0 mph ENE12.9 kmh ENE 12.0 mph19.3 kmh 29.86 in1011.2 mb 0.00 in0.0 mm 0.00 in/hr0.0 mm/hr 0.00 in0.0 mm
03:20 AM 71.7°F22.1°C 63.0°F17.2°C 74% 3.7 mph SE6.0 kmh SE 5.0 mph8.0 kmh 29.86 in1011.2 mb 0.00 in0.0 mm 0.00 in/hr0.0 mm/hr 0.00 in0.0 mm
03:30 AM 71.1°F21.7°C 62.8°F17.1°C 75% 3.8 mph E6.1 kmh E 8.0 mph12.9 kmh 29.86 in1011.2 mb 0.00 in0.0 mm 0.00 in/hr0.0 mm/hr 0.00 in0.0 mm
03:40 AM 70.4°F21.3°C 62.9°F17.2°C 77% Calm Calm -- 29.86 in1011.2 mb 0.00 in0.0 mm 0.00 in/hr0.0 mm/hr 0.00 in0.0 mm
03:50 AM 69.9°F21.1°C 62.7°F17.1°C 78% 0.6 mph ESE1.0 kmh ESE 3.0 mph4.8 kmh 29.86 in1011.2 mb 0.00 in0.0 mm 0.00 in/hr0.0 mm/hr 0.00 in0.0 mm
04:00 AM 69.8°F21.0°C 64.1°F17.8°C 82% 11.7 mph E18.8 kmh E 16.0 mph25.7 kmh 29.86 in1011.2 mb 0.00 in0.0 mm 0.00 in/hr0.0 mm/hr 0.00 in0.0 mm
04:10 AM 70.6°F21.4°C 65.2°F18.4°C 83% 8.8 mph ESE14.2 kmh ESE 14.0 mph22.5 kmh 29.86 in1011.2 mb 0.00 in0.0 mm 0.00 in/hr0.0 mm/hr 0.00 in0.0 mm
04:20 AM 71.0°F21.7°C 65.2°F18.4°C 82% 7.6 mph ENE12.2 kmh ENE 11.0 mph17.7 kmh 29.86 in1011.2 mb 0.00 in0.0 mm 0.00 in/hr0.0 mm/hr 0.00 in0.0 mm
04:30 AM 71.2°F21.8°C 65.1°F18.4°C 81% 6.5 mph ENE10.5 kmh ENE 8.0 mph12.9 kmh 29.86 in1011.2 mb 0.00 in0.0 mm 0.00 in/hr0.0 mm/hr 0.00 in0.0 mm
04:40 AM 71.1°F21.7°C 65.3°F18.5°C 82% 9.0 mph E14.5 kmh E 12.0 mph19.3 kmh 29.86 in1011.2 mb 0.00 in0.0 mm 0.00 in/hr0.0 mm/hr 0.00 in0.0 mm
04:50 AM 70.9°F21.6°C 64.1°F17.8°C 79% 5.3 mph SE8.5 kmh SE 10.0 mph16.1 kmh 29.86 in1011.2 mb 0.00 in0.0 mm 0.00 in/hr0.0 mm/hr 0.00 in0.0 mm
05:00 AM 70.2°F21.2°C 63.0°F17.2°C 78% 2.6 mph SE4.2 kmh SE 5.0 mph8.0 kmh 29.87 in1011.5 mb 0.00 in0.0 mm 0.00 in/hr0.0 mm/hr 0.00 in0.0 mm
05:10 AM 69.7°F20.9°C 62.9°F17.2°C 79% 4.9 mph ENE7.9 kmh ENE 8.0 mph12.9 kmh 29.87 in1011.5 mb 0.00 in0.0 mm 0.00 in/hr0.0 mm/hr 0.00 in0.0 mm
05:20 AM 70.3°F21.3°C 63.5°F17.5°C 79% 2.5 mph E4.0 kmh E 8.0 mph12.9 kmh 29.87 in1011.5 mb 0.00 in0.0 mm 0.00 in/hr0.0 mm/hr 0.00 in0.0 mm
05:30 AM 70.1°F21.2°C 61.8°F16.6°C 75% 6.3 mph E10.1 kmh E 9.0 mph14.5 kmh 29.87 in1011.5 mb 0.00 in0.0 mm 0.00 in/hr0.0 mm/hr 0.00 in0.0 mm
05:40 AM 70.8°F21.6°C 62.1°F16.7°C 74% 3.0 mph SE4.8 kmh SE 5.0 mph8.0 kmh 29.87 in1011.5 mb 0.00 in0.0 mm 0.00 in/hr0.0 mm/hr 0.00 in0.0 mm
05:50 AM 70.4°F21.3°C 61.3°F16.3°C 73% 2.3 mph E3.7 kmh E 6.0 mph9.7 kmh 29.88 in1011.9 mb 0.00 in0.0 mm 0.00 in/hr0.0 mm/hr 0.00 in0.0 mm
06:00 AM 69.6°F20.9°C 61.0°F16.1°C 74% 2.3 mph E3.7 kmh E 4.0 mph6.4 kmh 29.88 in1011.9 mb 0.00 in0.0 mm 0.00 in/hr0.0 mm/hr 0.00 in0.0 mm
06:10 AM 68.9°F20.5°C 60.7°F15.9°C 75% 0.1 mph SE0.2 kmh SE 2.0 mph3.2 kmh 29.88 in1011.9 mb 0.00 in0.0 mm 0.00 in/hr0.0 mm/hr 0.00 in0.0 mm
06:20 AM 68.1°F20.1°C 60.3°F15.7°C 76% 0.1 mph ESE0.2 kmh ESE -- 29.88 in1011.9 mb 0.00 in0.0 mm 0.00 in/hr0.0 mm/hr 0.00 in0.0 mm
06:30 AM 67.6°F19.8°C 59.8°F15.4°C 76% 0.9 mph ESE1.4 kmh ESE -- 29.88 in1011.9 mb 0.00 in0.0 mm 0.00 in/hr0.0 mm/hr 0.00 in0.0 mm
06:40 AM 67.2°F19.6°C 59.7°F15.4°C 77% Calm Calm -- 29.89 in1012.2 mb 0.00 in0.0 mm 0.00 in/hr0.0 mm/hr 0.00 in0.0 mm
06:50 AM 66.9°F19.4°C 59.5°F15.3°C 77% 1.3 mph ESE2.1 kmh ESE 1.0 mph1.6 kmh 29.89 in1012.2 mb 0.00 in0.0 mm 0.00 in/hr0.0 mm/hr 0.00 in0.0 mm
07:00 AM 66.9°F19.4°C 60.2°F15.7°C 79% Calm Calm -- 29.90 in1012.5 mb 0.00 in0.0 mm 0.00 in/hr0.0 mm/hr 0.00 in0.0 mm
07:10 AM 66.8°F19.3°C 60.4°F15.8°C 80% Calm Calm -- 29.91 in1012.9 mb 0.00 in0.0 mm 0.00 in/hr0.0 mm/hr 0.00 in0.0 mm
07:20 AM 67.1°F19.5°C 60.3°F15.7°C 79% Calm Calm -- 29.91 in1012.9 mb 0.00 in0.0 mm 0.00 in/hr0.0 mm/hr 0.00 in0.0 mm
07:30 AM 68.1°F20.1°C 61.3°F16.3°C 79% 2.6 mph E4.2 kmh E 4.0 mph6.4 kmh 29.92 in1013.2 mb 0.00 in0.0 mm 0.00 in/hr0.0 mm/hr 0.00 in0.0 mm
07:40 AM 70.4°F21.3°C 65.0°F18.3°C 83% 6.7 mph ENE10.8 kmh ENE 13.0 mph20.9 kmh 29.91 in1012.9 mb 0.00 in0.0 mm 0.00 in/hr0.0 mm/hr 0.00 in0.0 mm
07:50 AM 73.1°F22.8°C 66.5°F19.2°C 80% 5.6 mph ENE9.0 kmh ENE 11.0 mph17.7 kmh 29.92 in1013.2 mb 0.00 in0.0 mm 0.00 in/hr0.0 mm/hr 0.00 in0.0 mm
08:00 AM 74.4°F23.6°C 66.8°F19.3°C 77% 13.0 mph E20.9 kmh E 13.0 mph20.9 kmh 29.91 in1012.9 mb 0.00 in0.0 mm 0.00 in/hr0.0 mm/hr 0.00 in0.0 mm
08:10 AM 75.5°F24.2°C 66.3°F19.1°C 73% 6.9 mph E11.1 kmh E 10.0 mph16.1 kmh 29.92 in1013.2 mb 0.00 in0.0 mm 0.00 in/hr0.0 mm/hr 0.00 in0.0 mm
08:20 AM 76.8°F24.9°C 66.7°F19.3°C 71% 9.6 mph E15.4 kmh E 17.0 mph27.4 kmh 29.92 in1013.2 mb 0.00 in0.0 mm 0.00 in/hr0.0 mm/hr 0.00 in0.0 mm
08:30 AM 77.3°F25.2°C 66.8°F19.3°C 70% 8.3 mph ENE13.4 kmh ENE 14.0 mph22.5 kmh 29.92 in1013.2 mb 0.00 in0.0 mm 0.00 in/hr0.0 mm/hr 0.00 in0.0 mm
08:40 AM 78.4°F25.8°C 65.6°F18.7°C 65% 0.9 mph SE1.4 kmh SE -- 29.92 in1013.2 mb 0.00 in0.0 mm 0.00 in/hr0.0 mm/hr 0.00 in0.0 mm
08:50 AM 79.3°F26.3°C 65.6°F18.7°C 63% 1.0 mph SSW1.6 kmh SSW 5.0 mph8.0 kmh 29.92 in1013.2 mb 0.00 in0.0 mm 0.00 in/hr0.0 mm/hr 0.00 in0.0 mm
09:00 AM 80.0°F26.7°C 64.8°F18.2°C 60% 0.1 mph S0.2 kmh S 6.0 mph9.7 kmh 29.93 in1013.5 mb 0.00 in0.0 mm 0.00 in/hr0.0 mm/hr 0.00 in0.0 mm
09:10 AM 80.9°F27.2°C 68.9°F20.5°C 67% 7.6 mph NE12.2 kmh NE 14.0 mph22.5 kmh 29.93 in1013.5 mb 0.00 in0.0 mm 0.00 in/hr0.0 mm/hr 0.00 in0.0 mm
09:20 AM 80.3°F26.8°C 69.2°F20.7°C 69% 8.5 mph SE13.7 kmh SE 10.0 mph16.1 kmh 29.92 in1013.2 mb 0.00 in0.0 mm 0.00 in/hr0.0 mm/hr 0.00 in0.0 mm
09:30 AM 80.7°F27.1°C 69.6°F20.9°C 69% 8.2 mph SE13.2 kmh SE 12.0 mph19.3 kmh 29.93 in1013.5 mb 0.00 in0.0 mm 0.00 in/hr0.0 mm/hr 0.00 in0.0 mm
09:40 AM 80.9°F27.2°C 68.5°F20.3°C 66% 5.8 mph SSE9.3 kmh SSE 8.0 mph12.9 kmh 29.93 in1013.5 mb 0.00 in0.0 mm 0.00 in/hr0.0 mm/hr 0.00 in0.0 mm
09:50 AM 81.4°F27.4°C 67.6°F19.8°C 63% 5.1 mph S8.2 kmh S 8.0 mph12.9 kmh 29.93 in1013.5 mb 0.00 in0.0 mm 0.00 in/hr0.0 mm/hr 0.00 in0.0 mm
10:00 AM 81.4°F27.4°C 68.1°F20.1°C 64% 4.6 mph ESE7.4 kmh ESE 5.0 mph8.0 kmh 29.93 in1013.5 mb 0.00 in0.0 mm 0.00 in/hr0.0 mm/hr 0.00 in0.0 mm
10:10 AM 81.4°F27.4°C 69.0°F20.6°C 66% 1.0 mph WSW1.6 kmh WSW 3.0 mph4.8 kmh 29.93 in1013.5 mb 0.00 in0.0 mm 0.00 in/hr0.0 mm/hr 0.00 in0.0 mm
10:20 AM 81.2°F27.3°C 68.8°F20.4°C 66% 3.9 mph E6.3 kmh E 4.0 mph6.4 kmh 29.94 in1013.9 mb 0.00 in0.0 mm 0.00 in/hr0.0 mm/hr 0.00 in0.0 mm
10:30 AM 81.8°F27.7°C 68.9°F20.5°C 65% 3.0 mph NE4.8 kmh NE 7.0 mph11.3 kmh 29.93 in1013.5 mb 0.00 in0.0 mm 0.00 in/hr0.0 mm/hr 0.00 in0.0 mm
10:40 AM 80.6°F27.0°C 68.6°F20.3°C 67% 5.2 mph E8.4 kmh E 8.0 mph12.9 kmh 29.92 in1013.2 mb 0.00 in0.0 mm 0.00 in/hr0.0 mm/hr 0.00 in0.0 mm
10:50 AM 81.3°F27.4°C 66.5°F19.2°C 61% 2.7 mph S4.3 kmh S 3.0 mph4.8 kmh 29.93 in1013.5 mb 0.00 in0.0 mm 0.00 in/hr0.0 mm/hr 0.00 in0.0 mm
11:00 AM 82.5°F28.1°C 69.1°F20.6°C 64% 2.0 mph NE3.2 kmh NE 9.0 mph14.5 kmh 29.92 in1013.2 mb 0.00 in0.0 mm 0.00 in/hr0.0 mm/hr 0.00 in0.0 mm
11:10 AM 83.1°F28.4°C 70.1°F21.2°C 65% 9.8 mph E15.8 kmh E 10.0 mph16.1 kmh 29.91 in1012.9 mb 0.00 in0.0 mm 0.00 in/hr0.0 mm/hr 0.00 in0.0 mm
11:20 AM 83.3°F28.5°C 69.8°F21.0°C 64% 10.7 mph E17.2 kmh E 13.0 mph20.9 kmh 29.91 in1012.9 mb 0.00 in0.0 mm 0.00 in/hr0.0 mm/hr 0.00 in0.0 mm
11:30 AM 83.6°F28.7°C 69.7°F20.9°C 63% 8.2 mph E13.2 kmh E 14.0 mph22.5 kmh 29.91 in1012.9 mb 0.00 in0.0 mm 0.00 in/hr0.0 mm/hr 0.00 in0.0 mm
11:40 AM 83.1°F28.4°C 69.7°F20.9°C 64% 8.7 mph NE14.0 kmh NE 16.0 mph25.7 kmh 29.90 in1012.5 mb 0.00 in0.0 mm 0.00 in/hr0.0 mm/hr 0.00 in0.0 mm
11:50 AM 82.5°F28.1°C 70.0°F21.1°C 66% 9.0 mph E14.5 kmh E 14.0 mph22.5 kmh 29.90 in1012.5 mb 0.00 in0.0 mm 0.00 in/hr0.0 mm/hr 0.00 in0.0 mm
12:00 PM 83.1°F28.4°C 70.6°F21.4°C 66% 8.9 mph E14.3 kmh E 13.0 mph20.9 kmh 29.89 in1012.2 mb 0.00 in0.0 mm 0.00 in/hr0.0 mm/hr 0.00 in0.0 mm
12:10 PM 83.3°F28.5°C 69.4°F20.8°C 63% 3.5 mph ESE5.6 kmh ESE 11.0 mph17.7 kmh 29.89 in1012.2 mb 0.00 in0.0 mm 0.00 in/hr0.0 mm/hr 0.00 in0.0 mm
12:20 PM 82.8°F28.2°C 69.4°F20.8°C 64% 9.5 mph E15.3 kmh E 15.0 mph24.1 kmh 29.89 in1012.2 mb 0.00 in0.0 mm 0.00 in/hr0.0 mm/hr 0.00 in0.0 mm
12:30 PM 81.8°F27.7°C 68.9°F20.5°C 65% 3.5 mph NE5.6 kmh NE 12.0 mph19.3 kmh 29.89 in1012.2 mb 0.00 in0.0 mm 0.00 in/hr0.0 mm/hr 0.00 in0.0 mm
12:40 PM 80.4°F26.9°C 68.8°F20.4°C 68% 4.9 mph ENE7.9 kmh ENE 9.0 mph14.5 kmh 29.88 in1011.9 mb 0.00 in0.0 mm 0.00 in/hr0.0 mm/hr 0.00 in0.0 mm
12:50 PM 79.5°F26.4°C 69.3°F20.7°C 71% 6.9 mph E11.1 kmh E 9.0 mph14.5 kmh 29.88 in1011.9 mb 0.00 in0.0 mm 0.00 in/hr0.0 mm/hr 0.00 in0.0 mm
01:00 PM 79.4°F26.3°C 70.0°F21.1°C 73% 6.9 mph ENE11.1 kmh ENE 12.0 mph19.3 kmh 29.88 in1011.9 mb 0.00 in0.0 mm 0.00 in/hr0.0 mm/hr 0.00 in0.0 mm
01:10 PM 80.9°F27.2°C 70.6°F21.4°C 71% 11.5 mph ENE18.5 kmh ENE 13.0 mph20.9 kmh 29.87 in1011.5 mb 0.00 in0.0 mm 0.00 in/hr0.0 mm/hr 0.00 in0.0 mm
01:20 PM 82.2°F27.9°C 70.6°F21.4°C 68% 0.1 mph S0.2 kmh S 7.0 mph11.3 kmh 29.86 in1011.2 mb 0.00 in0.0 mm 0.00 in/hr0.0 mm/hr 0.00 in0.0 mm
01:30 PM 82.2°F27.9°C 70.1°F21.2°C 67% 3.8 mph ESE6.1 kmh ESE 9.0 mph14.5 kmh 29.87 in1011.5 mb 0.00 in0.0 mm 0.00 in/hr0.0 mm/hr 0.00 in0.0 mm
01:40 PM 80.9°F27.2°C 69.3°F20.7°C 68% 7.4 mph E11.9 kmh E 12.0 mph19.3 kmh 29.86 in1011.2 mb 0.00 in0.0 mm 0.00 in/hr0.0 mm/hr 0.00 in0.0 mm
01:50 PM 79.9°F26.6°C 68.4°F20.2°C 68% 7.4 mph ENE11.9 kmh ENE 13.0 mph20.9 kmh 29.86 in1011.2 mb 0.00 in0.0 mm 0.00 in/hr0.0 mm/hr 0.00 in0.0 mm
02:00 PM 80.3°F26.8°C 70.1°F21.2°C 71% 6.6 mph E10.6 kmh E 13.0 mph20.9 kmh 29.85 in1010.8 mb 0.00 in0.0 mm 0.00 in/hr0.0 mm/hr 0.00 in0.0 mm
02:10 PM 81.4°F27.4°C 69.4°F20.8°C 67% 9.6 mph ESE15.4 kmh ESE 10.0 mph16.1 kmh 29.85 in1010.8 mb 0.00 in0.0 mm 0.00 in/hr0.0 mm/hr 0.00 in0.0 mm
02:20 PM 81.8°F27.7°C 69.3°F20.7°C 66% 4.4 mph E7.1 kmh E 6.0 mph9.7 kmh 29.85 in1010.8 mb 0.00 in0.0 mm 0.00 in/hr0.0 mm/hr 0.00 in0.0 mm
02:30 PM 81.7°F27.6°C 69.2°F20.7°C 66% 3.7 mph E6.0 kmh E 10.0 mph16.1 kmh 29.85 in1010.8 mb 0.00 in0.0 mm 0.00 in/hr0.0 mm/hr 0.00 in0.0 mm
02:40 PM 80.7°F27.1°C 68.3°F20.2°C 66% 7.1 mph E11.4 kmh E 9.0 mph14.5 kmh 29.85 in1010.8 mb 0.00 in0.0 mm 0.00 in/hr0.0 mm/hr 0.00 in0.0 mm
02:50 PM 79.9°F26.6°C 68.4°F20.2°C 68% 7.3 mph E11.7 kmh E 10.0 mph16.1 kmh 29.85 in1010.8 mb 0.00 in0.0 mm 0.00 in/hr0.0 mm/hr 0.00 in0.0 mm
03:00 PM 79.2°F26.2°C 67.7°F19.8°C 68% 3.5 mph E5.6 kmh E 5.0 mph8.0 kmh 29.86 in1011.2 mb 0.00 in0.0 mm 0.00 in/hr0.0 mm/hr 0.00 in0.0 mm
03:10 PM 78.8°F26.0°C 68.6°F20.3°C 71% 4.0 mph ESE6.4 kmh ESE 6.0 mph9.7 kmh 29.86 in1011.2 mb 0.00 in0.0 mm 0.00 in/hr0.0 mm/hr 0.00 in0.0 mm
03:20 PM 78.7°F25.9°C 68.9°F20.5°C 72% 1.2 mph E1.9 kmh E -- 29.86 in1011.2 mb 0.00 in0.0 mm 0.00 in/hr0.0 mm/hr 0.00 in0.0 mm
03:30 PM 78.7°F25.9°C 68.5°F20.3°C 71% Calm Calm -- 29.86 in1011.2 mb 0.00 in0.0 mm 0.00 in/hr0.0 mm/hr 0.00 in0.0 mm
03:40 PM 79.0°F26.1°C 68.4°F20.2°C 70% 5.5 mph ENE8.9 kmh ENE 8.0 mph12.9 kmh 29.86 in1011.2 mb 0.00 in0.0 mm 0.00 in/hr0.0 mm/hr 0.00 in0.0 mm
03:50 PM 78.2°F25.7°C 68.5°F20.3°C 72% 8.3 mph E13.4 kmh E 12.0 mph19.3 kmh 29.86 in1011.2 mb 0.00 in0.0 mm 0.00 in/hr0.0 mm/hr 0.00 in0.0 mm
04:00 PM 77.2°F25.1°C 68.7°F20.4°C 75% 1.1 mph E1.8 kmh E 9.0 mph14.5 kmh 29.86 in1011.2 mb 0.00 in0.0 mm 0.00 in/hr0.0 mm/hr 0.00 in0.0 mm
04:10 PM 76.5°F24.7°C 68.0°F20.0°C 75% 0.9 mph NE1.4 kmh NE 9.0 mph14.5 kmh 29.85 in1010.8 mb 0.00 in0.0 mm 0.00 in/hr0.0 mm/hr 0.00 in0.0 mm
04:20 PM 75.8°F24.3°C 68.0°F20.0°C 77% 9.3 mph NE15.0 kmh NE 17.0 mph27.4 kmh 29.85 in1010.8 mb 0.00 in0.0 mm 0.00 in/hr0.0 mm/hr 0.00 in0.0 mm
04:30 PM 75.2°F24.0°C 67.8°F19.9°C 78% 8.7 mph E14.0 kmh E 13.0 mph20.9 kmh 29.85 in1010.8 mb 0.00 in0.0 mm 0.00 in/hr0.0 mm/hr 0.00 in0.0 mm
04:40 PM 75.3°F24.1°C 67.6°F19.8°C 77% 10.4 mph E16.7 kmh E 16.0 mph25.7 kmh 29.86 in1011.2 mb 0.00 in0.0 mm 0.00 in/hr0.0 mm/hr 0.00 in0.0 mm
04:50 PM 75.2°F24.0°C 68.2°F20.1°C 79% 7.3 mph ENE11.7 kmh ENE 11.0 mph17.7 kmh 29.86 in1011.2 mb 0.00 in0.0 mm 0.00 in/hr0.0 mm/hr 0.00 in0.0 mm
05:00 PM 74.5°F23.6°C 67.9°F19.9°C 80% 5.9 mph E9.5 kmh E 12.0 mph19.3 kmh 29.85 in1010.8 mb 0.00 in0.0 mm 0.00 in/hr0.0 mm/hr 0.00 in0.0 mm
05:10 PM 74.2°F23.4°C 66.2°F19.0°C 76% 7.1 mph E11.4 kmh E 10.0 mph16.1 kmh 29.85 in1010.8 mb 0.00 in0.0 mm 0.00 in/hr0.0 mm/hr 0.00 in0.0 mm
05:20 PM 74.6°F23.7°C 65.8°F18.8°C 74% 4.2 mph E6.8 kmh E 11.0 mph17.7 kmh 29.86 in1011.2 mb 0.00 in0.0 mm 0.00 in/hr0.0 mm/hr 0.00 in0.0 mm
05:30 PM 74.9°F23.8°C 66.1°F18.9°C 74% 8.6 mph E13.8 kmh E 10.0 mph16.1 kmh 29.86 in1011.2 mb 0.00 in0.0 mm 0.00 in/hr0.0 mm/hr 0.00 in0.0 mm
05:40 PM 74.7°F23.7°C 66.2°F19.0°C 75% 8.1 mph E13.0 kmh E 17.0 mph27.4 kmh 29.87 in1011.5 mb 0.00 in0.0 mm 0.00 in/hr0.0 mm/hr 0.00 in0.0 mm
05:50 PM 74.3°F23.5°C 66.6°F19.2°C 77% 7.8 mph E12.6 kmh E 11.0 mph17.7 kmh 29.87 in1011.5 mb 0.00 in0.0 mm 0.00 in/hr0.0 mm/hr 0.00 in0.0 mm
06:00 PM 73.6°F23.1°C 66.3°F19.1°C 78% 3.3 mph E5.3 kmh E 9.0 mph14.5 kmh 29.87 in1011.5 mb 0.00 in0.0 mm 0.00 in/hr0.0 mm/hr 0.00 in0.0 mm
06:10 PM 73.4°F23.0°C 64.6°F18.1°C 74% 6.8 mph SE10.9 kmh SE 8.0 mph12.9 kmh 29.87 in1011.5 mb 0.00 in0.0 mm 0.00 in/hr0.0 mm/hr 0.00 in0.0 mm
06:20 PM 73.6°F23.1°C 64.8°F18.2°C 74% 4.5 mph ENE7.2 kmh ENE 8.0 mph12.9 kmh 29.88 in1011.9 mb 0.00 in0.0 mm 0.00 in/hr0.0 mm/hr 0.00 in0.0 mm
06:30 PM 73.5°F23.1°C 65.1°F18.4°C 75% 6.8 mph E10.9 kmh E 10.0 mph16.1 kmh 29.88 in1011.9 mb 0.00 in0.0 mm 0.00 in/hr0.0 mm/hr 0.00 in0.0 mm
06:40 PM 73.3°F22.9°C 64.9°F18.3°C 75% 2.5 mph E4.0 kmh E 8.0 mph12.9 kmh 29.88 in1011.9 mb 0.00 in0.0 mm 0.00 in/hr0.0 mm/hr 0.00 in0.0 mm
06:50 PM 73.0°F22.8°C 64.6°F18.1°C 75% 5.6 mph E9.0 kmh E 8.0 mph12.9 kmh 29.89 in1012.2 mb 0.00 in0.0 mm 0.00 in/hr0.0 mm/hr 0.00 in0.0 mm
07:00 PM 72.8°F22.7°C 64.4°F18.0°C 75% 3.2 mph E5.1 kmh E 6.0 mph9.7 kmh 29.89 in1012.2 mb 0.00 in0.0 mm 0.00 in/hr0.0 mm/hr 0.00 in0.0 mm
07:10 PM 72.7°F22.6°C 63.9°F17.7°C 74% 4.4 mph E7.1 kmh E 7.0 mph11.3 kmh 29.89 in1012.2 mb 0.00 in0.0 mm 0.00 in/hr0.0 mm/hr 0.00 in0.0 mm
07:20 PM 72.6°F22.6°C 63.4°F17.4°C 73% 6.9 mph E11.1 kmh E 8.0 mph12.9 kmh 29.90 in1012.5 mb 0.00 in0.0 mm 0.00 in/hr0.0 mm/hr 0.00 in0.0 mm
07:30 PM 72.6°F22.6°C 63.8°F17.7°C 74% 8.1 mph E13.0 kmh E 12.0 mph19.3 kmh 29.90 in1012.5 mb 0.00 in0.0 mm 0.00 in/hr0.0 mm/hr 0.00 in0.0 mm
07:40 PM 72.5°F22.5°C 63.4°F17.4°C 73% 3.5 mph E5.6 kmh E 8.0 mph12.9 kmh 29.90 in1012.5 mb 0.00 in0.0 mm 0.00 in/hr0.0 mm/hr 0.00 in0.0 mm
07:50 PM 72.2°F22.3°C 62.7°F17.1°C 72% 3.1 mph ESE5.0 kmh ESE 5.0 mph8.0 kmh 29.91 in1012.9 mb 0.00 in0.0 mm 0.00 in/hr0.0 mm/hr 0.00 in0.0 mm
08:00 PM 72.2°F22.3°C 63.8°F17.7°C 75% 6.6 mph ENE10.6 kmh ENE 9.0 mph14.5 kmh 29.91 in1012.9 mb 0.00 in0.0 mm 0.00 in/hr0.0 mm/hr 0.00 in0.0 mm
08:10 PM 71.7°F22.1°C 63.0°F17.2°C 74% 0.5 mph SE0.8 kmh SE 5.0 mph8.0 kmh 29.91 in1012.9 mb 0.00 in0.0 mm 0.00 in/hr0.0 mm/hr 0.00 in0.0 mm
08:20 PM 71.5°F21.9°C 63.5°F17.5°C 76% 3.2 mph ESE5.1 kmh ESE 5.0 mph8.0 kmh 29.92 in1013.2 mb 0.00 in0.0 mm 0.00 in/hr0.0 mm/hr 0.00 in0.0 mm
08:30 PM 71.5°F21.9°C 63.9°F17.7°C 77% 1.6 mph ESE2.6 kmh ESE 4.0 mph6.4 kmh 29.92 in1013.2 mb 0.00 in0.0 mm 0.00 in/hr0.0 mm/hr 0.00 in0.0 mm
08:40 PM 71.3°F21.8°C 61.8°F16.6°C 72% 3.7 mph E6.0 kmh E 4.0 mph6.4 kmh 29.92 in1013.2 mb 0.00 in0.0 mm 0.00 in/hr0.0 mm/hr 0.00 in0.0 mm
08:50 PM 71.7°F22.1°C 62.6°F17.0°C 73% 2.1 mph ESE3.4 kmh ESE 3.0 mph4.8 kmh 29.92 in1013.2 mb 0.00 in0.0 mm 0.00 in/hr0.0 mm/hr 0.00 in0.0 mm
09:00 PM 71.6°F22.0°C 61.7°F16.5°C 71% 0.5 mph ESE0.8 kmh ESE 3.0 mph4.8 kmh 29.93 in1013.5 mb 0.00 in0.0 mm 0.00 in/hr0.0 mm/hr 0.00 in0.0 mm
09:10 PM 71.0°F21.7°C 61.9°F16.6°C 73% Calm Calm -- 29.93 in1013.5 mb 0.00 in0.0 mm 0.00 in/hr0.0 mm/hr 0.00 in0.0 mm
09:20 PM 70.3°F21.3°C 62.3°F16.8°C 76% Calm Calm -- 29.93 in1013.5 mb 0.00 in0.0 mm 0.00 in/hr0.0 mm/hr 0.00 in0.0 mm
09:30 PM 69.5°F20.8°C 61.2°F16.2°C 75% Calm Calm 3.0 mph4.8 kmh 29.93 in1013.5 mb 0.00 in0.0 mm 0.00 in/hr0.0 mm/hr 0.00 in0.0 mm
09:40 PM 69.2°F20.7°C 60.9°F16.1°C 75% 0.9 mph E1.4 kmh E 4.0 mph6.4 kmh 29.93 in1013.5 mb 0.00 in0.0 mm 0.00 in/hr0.0 mm/hr 0.00 in0.0 mm
09:50 PM 69.0°F20.6°C 61.1°F16.2°C 76% Calm Calm -- 29.94 in1013.9 mb 0.00 in0.0 mm 0.00 in/hr0.0 mm/hr 0.00 in0.0 mm
10:00 PM 68.8°F20.4°C 62.0°F16.7°C 79% Calm Calm -- 29.95 in1014.2 mb 0.00 in0.0 mm 0.00 in/hr0.0 mm/hr 0.00 in0.0 mm
10:10 PM 68.5°F20.3°C 62.4°F16.9°C 81% 3.3 mph E5.3 kmh E 5.0 mph8.0 kmh 29.95 in1014.2 mb 0.00 in0.0 mm 0.00 in/hr0.0 mm/hr 0.00 in0.0 mm
10:20 PM 68.2°F20.1°C 62.5°F16.9°C 82% 0.3 mph E0.5 kmh E -- 29.95 in1014.2 mb 0.00 in0.0 mm 0.00 in/hr0.0 mm/hr 0.00 in0.0 mm
10:30 PM 68.2°F20.1°C 63.2°F17.3°C 84% 1.2 mph E1.9 kmh E 4.0 mph6.4 kmh 29.95 in1014.2 mb 0.00 in0.0 mm 0.00 in/hr0.0 mm/hr 0.00 in0.0 mm
10:40 PM 68.0°F20.0°C 63.3°F17.4°C 85% 1.3 mph E2.1 kmh E 3.0 mph4.8 kmh 29.95 in1014.2 mb 0.00 in0.0 mm 0.00 in/hr0.0 mm/hr 0.00 in0.0 mm
10:50 PM 68.0°F20.0°C 63.3°F17.4°C 85% 0.2 mph E0.3 kmh E 3.0 mph4.8 kmh 29.95 in1014.2 mb 0.00 in0.0 mm 0.00 in/hr0.0 mm/hr 0.00 in0.0 mm
11:00 PM 67.7°F19.8°C 63.4°F17.4°C 86% Calm Calm -- 29.95 in1014.2 mb 0.00 in0.0 mm 0.00 in/hr0.0 mm/hr 0.00 in0.0 mm
11:10 PM 67.6°F19.8°C 63.6°F17.6°C 87% Calm Calm -- 29.95 in1014.2 mb 0.00 in0.0 mm 0.00 in/hr0.0 mm/hr 0.00 in0.0 mm
11:20 PM 67.4°F19.7°C 63.4°F17.4°C 87% Calm Calm -- 29.94 in1013.9 mb 0.00 in0.0 mm 0.00 in/hr0.0 mm/hr 0.00 in0.0 mm
11:30 PM 67.0°F19.4°C 63.3°F17.4°C 88% Calm Calm -- 29.94 in1013.9 mb 0.00 in0.0 mm 0.00 in/hr0.0 mm/hr 0.00 in0.0 mm
11:40 PM 66.8°F19.3°C 63.5°F17.5°C 89% Calm Calm -- 29.94 in1013.9 mb 0.00 in0.0 mm 0.00 in/hr0.0 mm/hr 0.00 in0.0 mm
11:50 PM 66.8°F19.3°C 63.4°F17.4°C 89% 0.1 mph E0.2 kmh E -- 29.94 in1013.9 mb 0.00 in0.0 mm 0.00 in/hr0.0 mm/hr 0.00 in0.0 mm